Terminal Aerodrome Forecast
Issued by NWS Blacksburg, VA

Current Version | Previous Version | Text Only | Print | Product List | Glossary Off
Versions: 1 2 3 4 5 6 7 8 9 10 11 12 13 14 15 16 17 18 19 20 21 22 23 24 25 26 27 28 29 30 31 32 33 34 35 36 37 38 39 40 41 42 43 44 45 46 47

000
FTUS41 KRNK 171411 AAA
TAFBLF
TAF AMD
KBLF 171411Z 1714/1812 16006KT P6SM SCT020 BKN045
      TEMPO 1715/1717 BKN020
     FM180000 14004KT P6SM SCT025
     FM180700 23003KT 2SM BR SCT002
     FM181000 VRB03KT 1/2SM FG BKN002=

USA.gov is the U.S. government's official web portal to all federal, state and local government web resources and services.